sensor_id;sensor_type;location;lat;lon;timestamp;P1;durP1;ratioP1;P2;durP2;ratioP2
17524;SDS011;40431;52.198;9.902;2023-03-26T00:01:02;6.13;;;4.83;;
17524;SDS011;40431;52.198;9.902;2023-03-26T00:03:31;6.30;;;4.90;;
17524;SDS011;40431;52.198;9.902;2023-03-26T00:06:02;7.60;;;5.27;;
17524;SDS011;40431;52.198;9.902;2023-03-26T00:08:31;6.50;;;5.03;;
17524;SDS011;40431;52.198;9.902;2023-03-26T00:10:57;5.47;;;5.00;;
17524;SDS011;40431;52.198;9.902;2023-03-26T00:13:24;5.73;;;5.00;;
17524;SDS011;40431;52.198;9.902;2023-03-26T00:15:51;6.47;;;5.10;;
17524;SDS011;40431;52.198;9.902;2023-03-26T00:18:18;6.60;;;5.23;;
17524;SDS011;40431;52.198;9.902;2023-03-26T00:20:47;6.40;;;5.80;;
17524;SDS011;40431;52.198;9.902;2023-03-26T00:23:14;5.90;;;5.30;;
17524;SDS011;40431;52.198;9.902;2023-03-26T00:25:40;5.97;;;5.40;;
17524;SDS011;40431;52.198;9.902;2023-03-26T00:28:07;5.80;;;5.20;;
17524;SDS011;40431;52.198;9.902;2023-03-26T00:30:34;6.47;;;5.83;;
17524;SDS011;40431;52.198;9.902;2023-03-26T00:33:01;6.13;;;5.13;;
17524;SDS011;40431;52.198;9.902;2023-03-26T00:35:27;5.67;;;5.17;;
17524;SDS011;40431;52.198;9.902;2023-03-26T00:37:55;6.17;;;5.57;;
17524;SDS011;40431;52.198;9.902;2023-03-26T00:40:22;6.77;;;5.53;;
17524;SDS011;40431;52.198;9.902;2023-03-26T00:42:49;5.63;;;5.23;;
17524;SDS011;40431;52.198;9.902;2023-03-26T00:45:15;5.50;;;4.97;;
17524;SDS011;40431;52.198;9.902;2023-03-26T00:47:45;5.47;;;4.97;;
17524;SDS011;40431;52.198;9.902;2023-03-26T00:50:11;6.60;;;5.00;;
17524;SDS011;40431;52.198;9.902;2023-03-26T00:52:39;5.63;;;5.13;;
17524;SDS011;40431;52.198;9.902;2023-03-26T00:55:07;6.50;;;5.03;;
17524;SDS011;40431;52.198;9.902;2023-03-26T00:57:34;7.13;;;4.63;;
17524;SDS011;40431;52.198;9.902;2023-03-26T01:00:02;6.77;;;5.00;;
17524;SDS011;40431;52.198;9.902;2023-03-26T01:02:40;5.63;;;5.07;;
17524;SDS011;40431;52.198;9.902;2023-03-26T01:08:11;5.47;;;4.13;;
17524;SDS011;40431;52.198;9.902;2023-03-26T01:10:44;6.63;;;4.50;;
17524;SDS011;40431;52.198;9.902;2023-03-26T01:13:15;5.20;;;4.80;;
17524;SDS011;40431;52.198;9.902;2023-03-26T01:15:42;5.20;;;4.77;;
17524;SDS011;40431;52.198;9.902;2023-03-26T01:18:16;5.60;;;3.97;;
17524;SDS011;40431;52.198;9.902;2023-03-26T01:20:43;5.17;;;4.47;;
17524;SDS011;40431;52.198;9.902;2023-03-26T01:23:14;5.40;;;3.57;;
17524;SDS011;40431;52.198;9.902;2023-03-26T01:25:48;5.17;;;4.67;;
17524;SDS011;40431;52.198;9.902;2023-03-26T01:28:25;4.87;;;3.97;;
17524;SDS011;40431;52.198;9.902;2023-03-26T01:30:57;4.60;;;4.17;;
17524;SDS011;40431;52.198;9.902;2023-03-26T01:33:32;5.43;;;4.30;;
17524;SDS011;40431;52.198;9.902;2023-03-26T01:36:04;4.50;;;4.10;;
17524;SDS011;40431;52.198;9.902;2023-03-26T01:38:36;4.47;;;4.07;;
17524;SDS011;40431;52.198;9.902;2023-03-26T01:41:12;3.60;;;3.30;;
17524;SDS011;40431;52.198;9.902;2023-03-26T01:43:45;5.00;;;3.67;;
17524;SDS011;40431;52.198;9.902;2023-03-26T01:46:16;6.67;;;3.80;;
17524;SDS011;40431;52.198;9.902;2023-03-26T01:48:44;5.63;;;3.37;;
17524;SDS011;40431;52.198;9.902;2023-03-26T01:51:13;3.40;;;3.07;;
17524;SDS011;40431;52.198;9.902;2023-03-26T01:53:50;2.87;;;2.67;;
17524;SDS011;40431;52.198;9.902;2023-03-26T01:56:19;3.13;;;2.80;;
17524;SDS011;40431;52.198;9.902;2023-03-26T01:58:56;3.60;;;3.30;;
17524;SDS011;40431;52.198;9.902;2023-03-26T02:01:34;3.63;;;3.30;;
17524;SDS011;40431;52.198;9.902;2023-03-26T02:04:10;3.77;;;2.63;;
17524;SDS011;40431;52.198;9.902;2023-03-26T02:06:48;4.60;;;3.10;;
17524;SDS011;40431;52.198;9.902;2023-03-26T02:09:19;3.00;;;2.80;;
17524;SDS011;40431;52.198;9.902;2023-03-26T02:11:51;2.80;;;2.53;;
17524;SDS011;40431;52.198;9.902;2023-03-26T02:14:19;3.10;;;2.70;;
17524;SDS011;40431;52.198;9.902;2023-03-26T02:16:45;3.77;;;2.43;;
17524;SDS011;40431;52.198;9.902;2023-03-26T02:19:12;3.43;;;2.30;;
17524;SDS011;40431;52.198;9.902;2023-03-26T02:21:39;3.20;;;2.43;;
17524;SDS011;40431;52.198;9.902;2023-03-26T02:24:06;2.93;;;2.67;;
17524;SDS011;40431;52.198;9.902;2023-03-26T02:26:33;4.33;;;3.40;;
17524;SDS011;40431;52.198;9.902;2023-03-26T02:29:03;5.27;;;4.20;;
17524;SDS011;40431;52.198;9.902;2023-03-26T02:31:29;5.60;;;3.80;;
17524;SDS011;40431;52.198;9.902;2023-03-26T02:33:56;3.73;;;3.40;;
17524;SDS011;40431;52.198;9.902;2023-03-26T02:36:22;4.30;;;3.67;;
17524;SDS011;40431;52.198;9.902;2023-03-26T02:38:52;4.43;;;3.90;;
17524;SDS011;40431;52.198;9.902;2023-03-26T02:41:19;4.03;;;3.70;;
17524;SDS011;40431;52.198;9.902;2023-03-26T02:43:45;4.73;;;3.80;;
17524;SDS011;40431;52.198;9.902;2023-03-26T02:46:13;4.10;;;3.73;;
17524;SDS011;40431;52.198;9.902;2023-03-26T02:48:39;5.30;;;3.97;;
17524;SDS011;40431;52.198;9.902;2023-03-26T02:51:06;3.60;;;3.30;;
17524;SDS011;40431;52.198;9.902;2023-03-26T02:53:33;3.77;;;3.47;;
17524;SDS011;40431;52.198;9.902;2023-03-26T02:56:01;3.57;;;3.30;;
17524;SDS011;40431;52.198;9.902;2023-03-26T02:58:28;3.70;;;3.40;;
17524;SDS011;40431;52.198;9.902;2023-03-26T03:00:55;3.83;;;3.50;;
17524;SDS011;40431;52.198;9.902;2023-03-26T03:03:23;3.50;;;3.30;;
17524;SDS011;40431;52.198;9.902;2023-03-26T03:05:51;3.57;;;3.37;;
17524;SDS011;40431;52.198;9.902;2023-03-26T03:08:19;4.93;;;4.00;;
17524;SDS011;40431;52.198;9.902;2023-03-26T03:10:54;4.63;;;4.23;;
17524;SDS011;40431;52.198;9.902;2023-03-26T03:13:21;3.80;;;3.50;;
17524;SDS011;40431;52.198;9.902;2023-03-26T03:15:48;4.40;;;4.10;;
17524;SDS011;40431;52.198;9.902;2023-03-26T03:18:14;5.27;;;4.20;;
17524;SDS011;40431;52.198;9.902;2023-03-26T03:20:42;3.57;;;3.27;;
17524;SDS011;40431;52.198;9.902;2023-03-26T03:23:08;4.67;;;4.33;;
17524;SDS011;40431;52.198;9.902;2023-03-26T03:25:35;4.03;;;3.63;;
17524;SDS011;40431;52.198;9.902;2023-03-26T03:28:02;5.00;;;4.10;;
17524;SDS011;40431;52.198;9.902;2023-03-26T03:30:29;4.50;;;4.10;;
17524;SDS011;40431;52.198;9.902;2023-03-26T03:32:55;6.77;;;4.27;;
17524;SDS011;40431;52.198;9.902;2023-03-26T03:35:23;7.57;;;4.93;;
17524;SDS011;40431;52.198;9.902;2023-03-26T03:37:52;7.30;;;4.37;;
17524;SDS011;40431;52.198;9.902;2023-03-26T03:40:19;4.33;;;3.93;;
17524;SDS011;40431;52.198;9.902;2023-03-26T03:42:45;5.97;;;3.80;;
17524;SDS011;40431;52.198;9.902;2023-03-26T03:45:12;4.77;;;4.37;;
17524;SDS011;40431;52.198;9.902;2023-03-26T03:47:39;7.60;;;4.03;;
17524;SDS011;40431;52.198;9.902;2023-03-26T03:50:06;5.67;;;4.07;;
17524;SDS011;40431;52.198;9.902;2023-03-26T03:52:33;5.27;;;3.90;;
17524;SDS011;40431;52.198;9.902;2023-03-26T03:55:01;4.43;;;4.07;;
17524;SDS011;40431;52.198;9.902;2023-03-26T03:57:29;4.10;;;3.80;;
17524;SDS011;40431;52.198;9.902;2023-03-26T03:59:57;4.67;;;4.27;;
17524;SDS011;40431;52.198;9.902;2023-03-26T04:02:24;6.30;;;4.50;;
17524;SDS011;40431;52.198;9.902;2023-03-26T04:04:54;4.53;;;4.13;;
17524;SDS011;40431;52.198;9.902;2023-03-26T04:07:22;6.20;;;4.60;;
17524;SDS011;40431;52.198;9.902;2023-03-26T04:09:48;4.53;;;3.70;;
17524;SDS011;40431;52.198;9.902;2023-03-26T04:12:16;6.80;;;4.70;;
17524;SDS011;40431;52.198;9.902;2023-03-26T04:14:42;4.63;;;4.23;;
17524;SDS011;40431;52.198;9.902;2023-03-26T04:17:09;5.63;;;4.03;;
17524;SDS011;40431;52.198;9.902;2023-03-26T04:19:37;4.73;;;4.33;;
17524;SDS011;40431;52.198;9.902;2023-03-26T04:22:04;4.87;;;4.10;;
17524;SDS011;40431;52.198;9.902;2023-03-26T04:24:30;5.50;;;4.13;;
17524;SDS011;40431;52.198;9.902;2023-03-26T04:26:58;4.70;;;3.73;;
17524;SDS011;40431;52.198;9.902;2023-03-26T04:29:27;6.37;;;3.90;;
17524;SDS011;40431;52.198;9.902;2023-03-26T04:31:58;5.20;;;3.77;;
17524;SDS011;40431;52.198;9.902;2023-03-26T04:34:30;5.03;;;4.53;;
17524;SDS011;40431;52.198;9.902;2023-03-26T04:36:58;7.40;;;4.57;;
17524;SDS011;40431;52.198;9.902;2023-03-26T04:39:26;7.07;;;5.07;;
17524;SDS011;40431;52.198;9.902;2023-03-26T04:41:53;7.37;;;5.10;;
17524;SDS011;40431;52.198;9.902;2023-03-26T04:44:19;6.53;;;5.93;;
17524;SDS011;40431;52.198;9.902;2023-03-26T04:46:48;9.27;;;5.63;;
17524;SDS011;40431;52.198;9.902;2023-03-26T04:49:16;8.80;;;5.83;;
17524;SDS011;40431;52.198;9.902;2023-03-26T04:51:43;10.17;;;6.53;;
17524;SDS011;40431;52.198;9.902;2023-03-26T04:54:11;9.37;;;6.73;;
17524;SDS011;40431;52.198;9.902;2023-03-26T04:56:39;7.77;;;6.00;;
17524;SDS011;40431;52.198;9.902;2023-03-26T04:59:12;6.80;;;6.10;;
17524;SDS011;40431;52.198;9.902;2023-03-26T05:01:51;9.37;;;6.27;;
17524;SDS011;40431;52.198;9.902;2023-03-26T05:04:17;7.77;;;6.30;;
17524;SDS011;40431;52.198;9.902;2023-03-26T05:06:44;7.43;;;5.70;;
17524;SDS011;40431;52.198;9.902;2023-03-26T05:09:10;8.27;;;6.10;;
17524;SDS011;40431;52.198;9.902;2023-03-26T05:11:36;6.67;;;5.97;;
17524;SDS011;40431;52.198;9.902;2023-03-26T05:14:03;8.03;;;5.37;;
17524;SDS011;40431;52.198;9.902;2023-03-26T05:16:29;6.67;;;5.90;;
17524;SDS011;40431;52.198;9.902;2023-03-26T05:19:00;7.53;;;6.00;;
17524;SDS011;40431;52.198;9.902;2023-03-26T05:21:28;7.40;;;6.40;;
17524;SDS011;40431;52.198;9.902;2023-03-26T05:23:55;6.33;;;5.73;;
17524;SDS011;40431;52.198;9.902;2023-03-26T05:26:21;7.03;;;5.70;;
17524;SDS011;40431;52.198;9.902;2023-03-26T05:28:51;6.97;;;6.37;;
17524;SDS011;40431;52.198;9.902;2023-03-26T05:31:18;6.40;;;5.80;;
17524;SDS011;40431;52.198;9.902;2023-03-26T05:33:51;7.00;;;5.70;;
17524;SDS011;40431;52.198;9.902;2023-03-26T05:36:20;10.07;;;6.70;;
17524;SDS011;40431;52.198;9.902;2023-03-26T05:38:47;9.10;;;6.60;;
17524;SDS011;40431;52.198;9.902;2023-03-26T05:41:14;9.53;;;6.57;;
17524;SDS011;40431;52.198;9.902;2023-03-26T05:43:42;7.60;;;6.70;;
17524;SDS011;40431;52.198;9.902;2023-03-26T05:46:11;7.23;;;6.23;;
17524;SDS011;40431;52.198;9.902;2023-03-26T05:48:38;6.97;;;5.97;;
17524;SDS011;40431;52.198;9.902;2023-03-26T05:51:05;7.90;;;6.30;;
17524;SDS011;40431;52.198;9.902;2023-03-26T05:53:33;11.63;;;6.40;;
17524;SDS011;40431;52.198;9.902;2023-03-26T05:55:59;9.90;;;7.60;;
17524;SDS011;40431;52.198;9.902;2023-03-26T05:58:27;9.47;;;6.17;;
17524;SDS011;40431;52.198;9.902;2023-03-26T06:00:55;12.27;;;7.13;;
17524;SDS011;40431;52.198;9.902;2023-03-26T06:03:23;8.27;;;7.47;;
17524;SDS011;40431;52.198;9.902;2023-03-26T06:05:50;11.83;;;7.73;;
17524;SDS011;40431;52.198;9.902;2023-03-26T06:08:19;8.60;;;7.20;;
17524;SDS011;40431;52.198;9.902;2023-03-26T06:10:47;10.70;;;7.57;;
17524;SDS011;40431;52.198;9.902;2023-03-26T06:13:15;9.90;;;6.93;;
17524;SDS011;40431;52.198;9.902;2023-03-26T06:15:43;8.43;;;7.50;;
17524;SDS011;40431;52.198;9.902;2023-03-26T06:18:10;10.10;;;6.90;;
17524;SDS011;40431;52.198;9.902;2023-03-26T06:20:36;8.57;;;7.13;;
17524;SDS011;40431;52.198;9.902;2023-03-26T06:23:03;8.20;;;6.93;;
17524;SDS011;40431;52.198;9.902;2023-03-26T06:25:29;7.07;;;6.47;;
17524;SDS011;40431;52.198;9.902;2023-03-26T06:27:57;10.17;;;7.50;;
17524;SDS011;40431;52.198;9.902;2023-03-26T06:30:23;7.17;;;6.47;;
17524;SDS011;40431;52.198;9.902;2023-03-26T06:32:52;7.27;;;6.57;;
17524;SDS011;40431;52.198;9.902;2023-03-26T06:35:18;7.57;;;6.13;;
17524;SDS011;40431;52.198;9.902;2023-03-26T06:37:46;9.63;;;6.73;;
17524;SDS011;40431;52.198;9.902;2023-03-26T06:40:15;7.80;;;6.13;;
17524;SDS011;40431;52.198;9.902;2023-03-26T06:42:42;6.17;;;5.57;;
17524;SDS011;40431;52.198;9.902;2023-03-26T06:45:10;7.20;;;6.50;;
17524;SDS011;40431;52.198;9.902;2023-03-26T06:47:36;8.20;;;6.73;;
17524;SDS011;40431;52.198;9.902;2023-03-26T06:50:03;6.83;;;6.10;;
17524;SDS011;40431;52.198;9.902;2023-03-26T06:52:30;8.97;;;6.67;;
17524;SDS011;40431;52.198;9.902;2023-03-26T06:54:57;8.20;;;5.60;;
17524;SDS011;40431;52.198;9.902;2023-03-26T06:57:23;6.67;;;5.17;;
17524;SDS011;40431;52.198;9.902;2023-03-26T06:59:49;11.27;;;5.70;;
17524;SDS011;40431;52.198;9.902;2023-03-26T07:02:17;11.43;;;5.33;;
17524;SDS011;40431;52.198;9.902;2023-03-26T07:04:44;7.33;;;4.83;;
17524;SDS011;40431;52.198;9.902;2023-03-26T07:07:11;5.33;;;4.20;;
17524;SDS011;40431;52.198;9.902;2023-03-26T07:09:38;5.23;;;4.17;;
17524;SDS011;40431;52.198;9.902;2023-03-26T07:12:04;4.03;;;3.63;;
17524;SDS011;40431;52.198;9.902;2023-03-26T07:14:31;7.97;;;3.50;;
17524;SDS011;40431;52.198;9.902;2023-03-26T07:16:58;7.00;;;3.80;;
17524;SDS011;40431;52.198;9.902;2023-03-26T07:19:26;4.50;;;3.80;;
17524;SDS011;40431;52.198;9.902;2023-03-26T07:21:52;5.53;;;3.57;;
17524;SDS011;40431;52.198;9.902;2023-03-26T07:24:19;4.27;;;3.47;;
17524;SDS011;40431;52.198;9.902;2023-03-26T07:26:47;4.63;;;3.43;;
17524;SDS011;40431;52.198;9.902;2023-03-26T07:29:22;6.00;;;3.60;;
17524;SDS011;40431;52.198;9.902;2023-03-26T07:31:59;4.27;;;3.10;;
17524;SDS011;40431;52.198;9.902;2023-03-26T07:34:39;5.03;;;3.10;;
17524;SDS011;40431;52.198;9.902;2023-03-26T07:37:20;4.03;;;3.23;;
17524;SDS011;40431;52.198;9.902;2023-03-26T07:39:58;3.97;;;2.73;;
17524;SDS011;40431;52.198;9.902;2023-03-26T07:42:31;7.93;;;3.50;;
17524;SDS011;40431;52.198;9.902;2023-03-26T07:45:24;3.70;;;2.97;;
17524;SDS011;40431;52.198;9.902;2023-03-26T07:47:59;4.13;;;3.20;;
17524;SDS011;40431;52.198;9.902;2023-03-26T07:50:30;2.97;;;2.70;;
17524;SDS011;40431;52.198;9.902;2023-03-26T07:52:56;5.90;;;3.23;;
17524;SDS011;40431;52.198;9.902;2023-03-26T07:55:23;5.63;;;2.87;;
17524;SDS011;40431;52.198;9.902;2023-03-26T07:57:53;4.40;;;2.93;;
17524;SDS011;40431;52.198;9.902;2023-03-26T08:00:29;6.70;;;2.87;;
17524;SDS011;40431;52.198;9.902;2023-03-26T08:06:00;4.67;;;3.20;;
17524;SDS011;40431;52.198;9.902;2023-03-26T08:08:34;4.57;;;3.37;;
17524;SDS011;40431;52.198;9.902;2023-03-26T08:11:13;3.80;;;3.13;;
17524;SDS011;40431;52.198;9.902;2023-03-26T08:13:53;5.90;;;3.07;;
17524;SDS011;40431;52.198;9.902;2023-03-26T08:16:27;6.17;;;3.20;;
17524;SDS011;40431;52.198;9.902;2023-03-26T08:19:02;4.70;;;2.87;;
17524;SDS011;40431;52.198;9.902;2023-03-26T08:21:39;3.37;;;3.07;;
17524;SDS011;40431;52.198;9.902;2023-03-26T08:24:12;4.90;;;3.03;;
17524;SDS011;40431;52.198;9.902;2023-03-26T08:26:46;5.00;;;3.07;;
17524;SDS011;40431;52.198;9.902;2023-03-26T08:29:23;2.87;;;2.53;;
17524;SDS011;40431;52.198;9.902;2023-03-26T08:31:53;4.40;;;2.77;;
17524;SDS011;40431;52.198;9.902;2023-03-26T08:34:21;4.27;;;2.90;;
17524;SDS011;40431;52.198;9.902;2023-03-26T08:36:49;4.53;;;2.87;;
17524;SDS011;40431;52.198;9.902;2023-03-26T08:39:16;3.20;;;2.43;;
17524;SDS011;40431;52.198;9.902;2023-03-26T08:41:53;3.53;;;2.87;;
17524;SDS011;40431;52.198;9.902;2023-03-26T08:44:54;3.20;;;2.40;;
17524;SDS011;40431;52.198;9.902;2023-03-26T08:47:41;5.40;;;2.80;;
17524;SDS011;40431;52.198;9.902;2023-03-26T08:50:41;4.13;;;2.60;;
17524;SDS011;40431;52.198;9.902;2023-03-26T08:53:36;3.27;;;2.50;;
17524;SDS011;40431;52.198;9.902;2023-03-26T08:56:22;3.80;;;2.10;;
17524;SDS011;40431;52.198;9.902;2023-03-26T08:59:02;2.50;;;2.13;;
17524;SDS011;40431;52.198;9.902;2023-03-26T09:02:05;3.43;;;2.50;;
17524;SDS011;40431;52.198;9.902;2023-03-26T09:07:54;3.60;;;2.50;;
17524;SDS011;40431;52.198;9.902;2023-03-26T09:10:57;5.40;;;2.77;;
17524;SDS011;40431;52.198;9.902;2023-03-26T09:14:15;4.77;;;2.87;;
17524;SDS011;40431;52.198;9.902;2023-03-26T09:17:25;3.47;;;2.70;;
17524;SDS011;40431;52.198;9.902;2023-03-26T09:20:45;14.40;;;3.63;;
17524;SDS011;40431;52.198;9.902;2023-03-26T09:23:47;4.43;;;3.20;;
17524;SDS011;40431;52.198;9.902;2023-03-26T09:29:37;3.57;;;3.10;;
17524;SDS011;40431;52.198;9.902;2023-03-26T09:32:37;6.50;;;4.17;;
17524;SDS011;40431;52.198;9.902;2023-03-26T09:35:24;5.23;;;4.10;;
17524;SDS011;40431;52.198;9.902;2023-03-26T09:38:09;4.13;;;3.10;;
17524;SDS011;40431;52.198;9.902;2023-03-26T09:40:47;7.10;;;3.90;;
17524;SDS011;40431;52.198;9.902;2023-03-26T09:43:33;5.00;;;3.37;;
17524;SDS011;40431;52.198;9.902;2023-03-26T09:46:15;5.73;;;3.80;;
17524;SDS011;40431;52.198;9.902;2023-03-26T09:49:02;3.70;;;3.40;;
17524;SDS011;40431;52.198;9.902;2023-03-26T09:51:51;7.00;;;4.20;;
17524;SDS011;40431;52.198;9.902;2023-03-26T09:54:43;4.87;;;3.40;;
17524;SDS011;40431;52.198;9.902;2023-03-26T09:57:24;4.30;;;3.60;;
17524;SDS011;40431;52.198;9.902;2023-03-26T10:00:16;6.07;;;4.23;;
17524;SDS011;40431;52.198;9.902;2023-03-26T10:03:02;7.80;;;4.07;;
17524;SDS011;40431;52.198;9.902;2023-03-26T10:05:39;4.87;;;3.60;;
17524;SDS011;40431;52.198;9.902;2023-03-26T10:11:12;7.03;;;4.17;;
17524;SDS011;40431;52.198;9.902;2023-03-26T10:13:50;5.57;;;3.70;;
17524;SDS011;40431;52.198;9.902;2023-03-26T10:16:25;5.50;;;4.27;;
17524;SDS011;40431;52.198;9.902;2023-03-26T10:19:07;6.53;;;4.40;;
17524;SDS011;40431;52.198;9.902;2023-03-26T10:21:46;5.03;;;3.93;;
17524;SDS011;40431;52.198;9.902;2023-03-26T10:24:26;4.33;;;3.83;;
17524;SDS011;40431;52.198;9.902;2023-03-26T10:27:07;4.93;;;4.00;;
17524;SDS011;40431;52.198;9.902;2023-03-26T10:32:50;5.70;;;4.10;;
17524;SDS011;40431;52.198;9.902;2023-03-26T10:35:25;4.90;;;3.80;;
17524;SDS011;40431;52.198;9.902;2023-03-26T10:38:06;5.30;;;3.90;;
17524;SDS011;40431;52.198;9.902;2023-03-26T10:40:42;5.80;;;3.87;;
17524;SDS011;40431;52.198;9.902;2023-03-26T10:43:21;5.13;;;4.30;;
17524;SDS011;40431;52.198;9.902;2023-03-26T10:46:09;4.63;;;3.50;;
17524;SDS011;40431;52.198;9.902;2023-03-26T10:51:47;5.90;;;4.03;;
17524;SDS011;40431;52.198;9.902;2023-03-26T10:54:20;6.30;;;4.80;;
17524;SDS011;40431;52.198;9.902;2023-03-26T10:56:55;5.97;;;4.40;;
17524;SDS011;40431;52.198;9.902;2023-03-26T10:59:23;4.37;;;3.20;;
17524;SDS011;40431;52.198;9.902;2023-03-26T11:01:54;4.50;;;3.50;;
17524;SDS011;40431;52.198;9.902;2023-03-26T11:04:32;5.93;;;4.00;;
17524;SDS011;40431;52.198;9.902;2023-03-26T11:07:12;5.10;;;3.93;;
17524;SDS011;40431;52.198;9.902;2023-03-26T11:09:46;4.73;;;3.70;;
17524;SDS011;40431;52.198;9.902;2023-03-26T11:12:20;6.23;;;4.33;;
17524;SDS011;40431;52.198;9.902;2023-03-26T11:14:52;5.50;;;3.50;;
17524;SDS011;40431;52.198;9.902;2023-03-26T11:17:31;6.07;;;4.47;;
17524;SDS011;40431;52.198;9.902;2023-03-26T11:20:09;8.30;;;7.03;;
17524;SDS011;40431;52.198;9.902;2023-03-26T11:22:44;5.07;;;3.83;;
17524;SDS011;40431;52.198;9.902;2023-03-26T11:25:31;13.27;;;10.47;;
17524;SDS011;40431;52.198;9.902;2023-03-26T11:28:11;5.20;;;3.67;;
17524;SDS011;40431;52.198;9.902;2023-03-26T11:30:51;6.40;;;5.27;;
17524;SDS011;40431;52.198;9.902;2023-03-26T11:33:24;4.37;;;3.13;;
17524;SDS011;40431;52.198;9.902;2023-03-26T11:35:57;5.80;;;3.27;;
17524;SDS011;40431;52.198;9.902;2023-03-26T11:38:27;3.87;;;3.40;;
17524;SDS011;40431;52.198;9.902;2023-03-26T11:41:01;5.37;;;3.30;;
17524;SDS011;40431;52.198;9.902;2023-03-26T11:43:31;4.40;;;3.90;;
17524;SDS011;40431;52.198;9.902;2023-03-26T11:46:00;4.97;;;3.93;;
17524;SDS011;40431;52.198;9.902;2023-03-26T11:48:29;6.07;;;3.57;;
17524;SDS011;40431;52.198;9.902;2023-03-26T11:51:01;7.87;;;7.17;;
17524;SDS011;40431;52.198;9.902;2023-03-26T11:53:32;8.77;;;4.03;;
17524;SDS011;40431;52.198;9.902;2023-03-26T11:56:03;4.67;;;3.77;;
17524;SDS011;40431;52.198;9.902;2023-03-26T11:58:36;4.43;;;3.43;;
17524;SDS011;40431;52.198;9.902;2023-03-26T12:01:11;6.40;;;4.10;;
17524;SDS011;40431;52.198;9.902;2023-03-26T12:03:39;6.03;;;4.23;;
17524;SDS011;40431;52.198;9.902;2023-03-26T12:06:10;4.57;;;4.00;;
17524;SDS011;40431;52.198;9.902;2023-03-26T12:08:49;5.37;;;4.57;;
17524;SDS011;40431;52.198;9.902;2023-03-26T12:11:16;4.10;;;3.70;;
17524;SDS011;40431;52.198;9.902;2023-03-26T12:13:49;4.63;;;4.10;;
17524;SDS011;40431;52.198;9.902;2023-03-26T12:16:17;6.60;;;4.60;;
17524;SDS011;40431;52.198;9.902;2023-03-26T12:18:46;5.50;;;4.70;;
17524;SDS011;40431;52.198;9.902;2023-03-26T12:21:25;4.63;;;4.23;;
17524;SDS011;40431;52.198;9.902;2023-03-26T12:23:56;5.93;;;4.67;;
17524;SDS011;40431;52.198;9.902;2023-03-26T12:26:28;6.27;;;4.40;;
17524;SDS011;40431;52.198;9.902;2023-03-26T12:29:09;6.30;;;4.53;;
17524;SDS011;40431;52.198;9.902;2023-03-26T12:31:40;6.00;;;4.70;;
17524;SDS011;40431;52.198;9.902;2023-03-26T12:34:15;4.63;;;4.20;;
17524;SDS011;40431;52.198;9.902;2023-03-26T12:36:48;5.07;;;4.60;;
17524;SDS011;40431;52.198;9.902;2023-03-26T12:39:25;6.40;;;5.00;;
17524;SDS011;40431;52.198;9.902;2023-03-26T12:41:55;4.87;;;4.00;;
17524;SDS011;40431;52.198;9.902;2023-03-26T12:44:24;8.87;;;4.57;;
17524;SDS011;40431;52.198;9.902;2023-03-26T12:47:05;5.83;;;5.20;;
17524;SDS011;40431;52.198;9.902;2023-03-26T12:49:34;6.03;;;3.73;;
17524;SDS011;40431;52.198;9.902;2023-03-26T12:52:06;5.50;;;4.63;;
17524;SDS011;40431;52.198;9.902;2023-03-26T12:54:40;5.90;;;4.30;;
17524;SDS011;40431;52.198;9.902;2023-03-26T12:57:17;6.70;;;4.33;;
17524;SDS011;40431;52.198;9.902;2023-03-26T12:59:54;4.50;;;4.10;;
17524;SDS011;40431;52.198;9.902;2023-03-26T13:02:40;4.60;;;4.07;;
17524;SDS011;40431;52.198;9.902;2023-03-26T13:05:27;5.20;;;4.13;;
17524;SDS011;40431;52.198;9.902;2023-03-26T13:08:19;5.67;;;4.50;;
17524;SDS011;40431;52.198;9.902;2023-03-26T13:10:59;5.70;;;4.63;;
17524;SDS011;40431;52.198;9.902;2023-03-26T13:13:38;5.90;;;4.50;;
17524;SDS011;40431;52.198;9.902;2023-03-26T13:16:22;5.17;;;4.67;;
17524;SDS011;40431;52.198;9.902;2023-03-26T13:18:55;11.43;;;4.80;;
17524;SDS011;40431;52.198;9.902;2023-03-26T13:21:28;5.33;;;4.00;;
17524;SDS011;40431;52.198;9.902;2023-03-26T13:24:00;5.80;;;4.50;;
17524;SDS011;40431;52.198;9.902;2023-03-26T13:26:36;5.17;;;4.57;;
17524;SDS011;40431;52.198;9.902;2023-03-26T13:29:16;7.57;;;4.90;;
17524;SDS011;40431;52.198;9.902;2023-03-26T13:31:53;7.23;;;4.77;;
17524;SDS011;40431;52.198;9.902;2023-03-26T13:34:30;5.00;;;4.50;;
17524;SDS011;40431;52.198;9.902;2023-03-26T13:37:01;6.00;;;4.70;;
17524;SDS011;40431;52.198;9.902;2023-03-26T13:39:39;4.87;;;4.03;;
17524;SDS011;40431;52.198;9.902;2023-03-26T13:42:20;6.83;;;5.60;;
17524;SDS011;40431;52.198;9.902;2023-03-26T13:45:02;5.50;;;5.00;;
17524;SDS011;40431;52.198;9.902;2023-03-26T13:47:37;5.10;;;4.40;;
17524;SDS011;40431;52.198;9.902;2023-03-26T13:50:13;5.43;;;4.97;;
17524;SDS011;40431;52.198;9.902;2023-03-26T13:52:44;4.50;;;4.10;;
17524;SDS011;40431;52.198;9.902;2023-03-26T13:55:20;4.53;;;4.13;;
17524;SDS011;40431;52.198;9.902;2023-03-26T13:57:53;3.73;;;3.33;;
17524;SDS011;40431;52.198;9.902;2023-03-26T14:00:28;4.60;;;3.53;;
17524;SDS011;40431;52.198;9.902;2023-03-26T14:03:00;4.97;;;4.57;;
17524;SDS011;40431;52.198;9.902;2023-03-26T14:05:29;3.70;;;3.40;;
17524;SDS011;40431;52.198;9.902;2023-03-26T14:08:00;4.03;;;3.53;;
17524;SDS011;40431;52.198;9.902;2023-03-26T14:10:33;2.97;;;2.77;;
17524;SDS011;40431;52.198;9.902;2023-03-26T14:13:05;7.13;;;2.80;;
17524;SDS011;40431;52.198;9.902;2023-03-26T14:15:43;2.90;;;2.70;;
17524;SDS011;40431;52.198;9.902;2023-03-26T14:18:20;2.53;;;2.33;;
17524;SDS011;40431;52.198;9.902;2023-03-26T14:21:19;3.67;;;3.03;;
17524;SDS011;40431;52.198;9.902;2023-03-26T14:24:02;2.70;;;2.60;;
17524;SDS011;40431;52.198;9.902;2023-03-26T14:26:59;2.77;;;2.57;;
17524;SDS011;40431;52.198;9.902;2023-03-26T14:29:40;2.87;;;2.63;;
17524;SDS011;40431;52.198;9.902;2023-03-26T14:32:19;2.80;;;2.60;;
17524;SDS011;40431;52.198;9.902;2023-03-26T14:35:03;3.00;;;2.83;;
17524;SDS011;40431;52.198;9.902;2023-03-26T14:37:41;2.70;;;2.57;;
17524;SDS011;40431;52.198;9.902;2023-03-26T14:40:26;3.10;;;2.80;;
17524;SDS011;40431;52.198;9.902;2023-03-26T14:43:00;2.90;;;2.70;;
17524;SDS011;40431;52.198;9.902;2023-03-26T14:45:51;2.77;;;2.53;;
17524;SDS011;40431;52.198;9.902;2023-03-26T14:51:49;2.90;;;2.70;;
17524;SDS011;40431;52.198;9.902;2023-03-26T14:54:27;2.97;;;2.77;;
17524;SDS011;40431;52.198;9.902;2023-03-26T14:57:19;2.47;;;2.37;;
17524;SDS011;40431;52.198;9.902;2023-03-26T15:00:09;2.43;;;2.23;;
17524;SDS011;40431;52.198;9.902;2023-03-26T15:02:58;2.70;;;2.50;;
17524;SDS011;40431;52.198;9.902;2023-03-26T15:11:56;3.77;;;3.47;;
17524;SDS011;40431;52.198;9.902;2023-03-26T15:17:45;2.20;;;2.10;;
17524;SDS011;40431;52.198;9.902;2023-03-26T15:20:35;3.10;;;2.90;;
17524;SDS011;40431;52.198;9.902;2023-03-26T15:23:43;2.80;;;2.60;;
17524;SDS011;40431;52.198;9.902;2023-03-26T15:26:45;3.20;;;2.90;;
17524;SDS011;40431;52.198;9.902;2023-03-26T15:29:55;3.57;;;3.27;;
17524;SDS011;40431;52.198;9.902;2023-03-26T15:33:00;3.90;;;3.60;;
17524;SDS011;40431;52.198;9.902;2023-03-26T15:41:48;2.47;;;2.10;;
17524;SDS011;40431;52.198;9.902;2023-03-26T15:44:28;2.27;;;2.03;;
17524;SDS011;40431;52.198;9.902;2023-03-26T15:47:24;2.70;;;2.47;;
17524;SDS011;40431;52.198;9.902;2023-03-26T15:50:07;2.60;;;2.40;;
17524;SDS011;40431;52.198;9.902;2023-03-26T15:52:44;2.67;;;2.47;;
17524;SDS011;40431;52.198;9.902;2023-03-26T15:55:22;3.63;;;3.33;;
17524;SDS011;40431;52.198;9.902;2023-03-26T15:57:54;5.03;;;4.53;;
17524;SDS011;40431;52.198;9.902;2023-03-26T16:00:26;3.80;;;3.50;;
17524;SDS011;40431;52.198;9.902;2023-03-26T16:03:18;5.67;;;5.27;;
17524;SDS011;40431;52.198;9.902;2023-03-26T16:06:09;5.33;;;4.93;;
17524;SDS011;40431;52.198;9.902;2023-03-26T16:08:57;5.63;;;3.50;;